^^
Station Historical Data
Daily Summary for March 13, 2018 Units:  Metric    English   Both
« Previous Day
Next Day »
Daily Weekly Monthly Yearly Custom
  High: Low: Average:
Temperature: -17.8 °C -17.2 °C -16.8 °C
Dew Point: -17.8 °C -17.8 °C -17.3 °C
Humidity: Humidity% 93% 93%
Wind Speed: 0km/h 0km/h 0.8km/h
Wind Gust: 0km/h - -
Wind- - SE
Pressure: 0 hPa 33534.9 hPa -
Precipitation: 147.32 mm    
Historical Graphs
 
 
Tabular Data for March 13, 2018
Time Temperature Dew Point Pressure Wind Wind Speed Wind Gust Humidity Rainfall Rate (Hourly) solar Conditions
-17.8 °C -17.8 °C 0 hPa Calm     Humidity% 0 mm SoftwareType W/m2 Conditions
00:02 -17.2 °C -17.8 °C 33741.5 hPa Calm     93% 0 mm WeatherDisplay:10.37 W/m2 -DZ
00:07 -17.2 °C -17.7 °C 33741.5 hPa ESE 4.7 km/h 9 km/h 93% 0 mm WeatherDisplay:10.37 W/m2 -DZ
00:12 -17.2 °C -17.7 °C 33741.5 hPa Calm     93% 0 mm WeatherDisplay:10.37 W/m2 -DZ
00:17 -17.2 °C -17.7 °C 33741.5 hPa Calm   6 km/h 93% 0 mm WeatherDisplay:10.37 W/m2 BKN
00:23 -17.2 °C -17.7 °C 33741.5 hPa ESE 2.6 km/h 6 km/h 93% 0 mm WeatherDisplay:10.37 W/m2 BKN
00:28 -17.2 °C -17.7 °C 33731.3 hPa ESE 1.3 km/h 9 km/h 93% 0 mm WeatherDisplay:10.37 W/m2 BKN
00:33 -17.2 °C -17.7 °C 33731.3 hPa Calm     93% 0 mm WeatherDisplay:10.37 W/m2 OVC
00:38 -17.2 °C -17.7 °C 33731.3 hPa ESE 1.6 km/h 9 km/h 93% 0 mm WeatherDisplay:10.37 W/m2 OVC
00:43 -17.2 °C -17.7 °C 33731.3 hPa Calm     93% 0 mm WeatherDisplay:10.37 W/m2 OVC
00:48 -17.2 °C -17.7 °C 33731.3 hPa ESE 7.2 km/h 17.9 km/h 93% 0 mm WeatherDisplay:10.37 W/m2 OVC
00:53 -17.2 °C -17.7 °C 33717.8 hPa Calm     93% 0 mm WeatherDisplay:10.37 W/m2 OVC
00:58 -17.2 °C -17.7 °C 33717.8 hPa ESE 1 km/h 6 km/h 93% 0 mm WeatherDisplay:10.37 W/m2 OVC
01:03 -17.2 °C -17.7 °C 33717.8 hPa Calm   9 km/h 93% 0 mm WeatherDisplay:10.37 W/m2 -DZ
01:08 -17.2 °C -17.7 °C 33717.8 hPa Calm     93% 0 mm WeatherDisplay:10.37 W/m2 -DZ
01:13 -17.2 °C -17.7 °C 33717.8 hPa ESE 7.6 km/h 15 km/h 93% 0 mm WeatherDisplay:10.37 W/m2 -DZ
01:18 -17.2 °C -17.7 °C 33707.6 hPa Calm   9 km/h 93% 0 mm WeatherDisplay:10.37 W/m2 -DZ
01:23 -17.2 °C -17.7 °C 33707.6 hPa ESE 2.6 km/h 9 km/h 93% 0 mm WeatherDisplay:10.37 W/m2 -DZ
01:29 -17.2 °C -17.7 °C 33707.6 hPa ESE 1.8 km/h 7.7 km/h 93% 0 mm WeatherDisplay:10.37 W/m2 -DZ
01:34 -17.2 °C -17.7 °C 33707.6 hPa ESE 0.5 km/h 9 km/h 93% 0 mm WeatherDisplay:10.37 W/m2 -DZ
01:39 -17.2 °C -17.7 °C 33707.6 hPa ESE 0.8 km/h 6 km/h 93% 0 mm WeatherDisplay:10.37 W/m2 -DZ
01:44 -17.2 °C -17.7 °C 33707.6 hPa ESE 8.2 km/h 15 km/h 93% 0 mm WeatherDisplay:10.37 W/m2 -RA
01:49 -17.2 °C -17.7 °C 33707.6 hPa ESE 2.1 km/h 9 km/h 93% 0 mm WeatherDisplay:10.37 W/m2 -RA
01:54 -17.2 °C -17.7 °C 33694.1 hPa Calm     93% 0 mm WeatherDisplay:10.37 W/m2 -RA
01:59 -17.2 °C -17.7 °C 33694.1 hPa Calm     93% 0 mm WeatherDisplay:10.37 W/m2 -RA
02:04 -17.2 °C -17.7 °C 33694.1 hPa Calm     93% 0 mm WeatherDisplay:10.37 W/m2 -RA
02:09 -17.2 °C -17.7 °C 33694.1 hPa ESE 0.3 km/h 5.1 km/h 93% 0 mm WeatherDisplay:10.37 W/m2 -RA
02:14 -17.2 °C -17.7 °C 33694.1 hPa ESE 3.1 km/h 10.3 km/h 93% 7.62 mm WeatherDisplay:10.37 W/m2 -RA
02:19 -17.2 °C -17.7 °C 33683.9 hPa ESE 4.2 km/h 9 km/h 93% 7.62 mm WeatherDisplay:10.37 W/m2 -RA
02:24 -17.2 °C -17.7 °C 33683.9 hPa ESE 2.1 km/h 9 km/h 93% 7.62 mm WeatherDisplay:10.37 W/m2 -RA
02:29 -17.2 °C -17.7 °C 33683.9 hPa ESE 6.4 km/h 9 km/h 93% 7.62 mm WeatherDisplay:10.37 W/m2 -RA
02:35 -17.2 °C -17.7 °C 33683.9 hPa ESE 0.5 km/h 3.1 km/h 93% 7.62 mm WeatherDisplay:10.37 W/m2 -RA
02:40 -17.2 °C -17.7 °C 33673.8 hPa Calm     93% 7.62 mm WeatherDisplay:10.37 W/m2 -RA
02:45 -17.2 °C -17.7 °C 33673.8 hPa ESE 7.6 km/h 15 km/h 93% 7.62 mm WeatherDisplay:10.37 W/m2 -RA
02:50 -17.1 °C -17.7 °C 33673.8 hPa ESE 3.7 km/h 7.7 km/h 93% 7.62 mm WeatherDisplay:10.37 W/m2 -RA
02:55 -17.1 °C -17.7 °C 33673.8 hPa Calm   2.6 km/h 93% 7.62 mm WeatherDisplay:10.37 W/m2 -RA
03:00 -17.2 °C -17.7 °C 33673.8 hPa ESE 0.3 km/h 3.1 km/h 93% 12.7 mm WeatherDisplay:10.37 W/m2 -RA
03:05 -17.1 °C -17.7 °C 33660.2 hPa ESE 2.9 km/h 7.7 km/h 93% 12.7 mm WeatherDisplay:10.37 W/m2 -DZ
03:10 -17.1 °C -17.7 °C 33660.2 hPa Calm     93% 12.7 mm WeatherDisplay:10.37 W/m2 -DZ
03:15 -17.1 °C -17.7 °C 33660.2 hPa ESE 2.1 km/h 7.7 km/h 93% 7.62 mm WeatherDisplay:10.37 W/m2 -DZ
03:20 -17.1 °C -17.7 °C 33660.2 hPa ESE 3.4 km/h 9 km/h 93% 7.62 mm WeatherDisplay:10.37 W/m2 -DZ
03:25 -17.1 °C -17.7 °C 33660.2 hPa ESE 7.2 km/h 15 km/h 93% 7.62 mm WeatherDisplay:10.37 W/m2 -DZ
03:30 -17.1 °C -17.7 °C 33650.1 hPa Calm     93% 7.62 mm WeatherDisplay:10.37 W/m2 -DZ
03:35 -17.1 °C -17.7 °C 33650.1 hPa Calm   9 km/h 93% 7.62 mm WeatherDisplay:10.37 W/m2 -DZ
03:40 -17.1 °C -17.7 °C 33650.1 hPa ESE 1.8 km/h 9 km/h 93% 7.62 mm WeatherDisplay:10.37 W/m2 -RA
03:46 -17.1 °C -17.7 °C 33650.1 hPa Calm     93% 12.7 mm WeatherDisplay:10.37 W/m2 -RA
03:51 -17.1 °C -17.7 °C 33650.1 hPa Calm     93% 12.7 mm WeatherDisplay:10.37 W/m2 -RA
03:56 -17.1 °C -17.7 °C 33639.9 hPa ESE 2.1 km/h 9 km/h 93% 12.7 mm WeatherDisplay:10.37 W/m2 -RA
04:01 -17.1 °C -17.7 °C 33639.9 hPa Calm     93% 12.7 mm WeatherDisplay:10.37 W/m2 -RA
04:06 -17.1 °C -17.7 °C 33639.9 hPa Calm     93% 12.7 mm WeatherDisplay:10.37 W/m2 -RA
04:11 -17.1 °C -17.6 °C 33639.9 hPa ESE 0.5 km/h 9 km/h 93% 12.7 mm WeatherDisplay:10.37 W/m2 -RA
04:16 -17.1 °C -17.6 °C 33639.9 hPa ESE 5.1 km/h 15.6 km/h 93% 12.7 mm WeatherDisplay:10.37 W/m2 -RA
04:21 -17.1 °C -17.6 °C 33639.9 hPa Calm     93% 12.7 mm WeatherDisplay:10.37 W/m2 -RA
04:26 -17.1 °C -17.6 °C 33639.9 hPa ESE 2.9 km/h 7.7 km/h 93% 20.32 mm WeatherDisplay:10.37 W/m2 -RA
04:31 -17.1 °C -17.6 °C 33626.4 hPa Calm     93% 20.32 mm WeatherDisplay:10.37 W/m2 -RA
04:36 -17.1 °C -17.6 °C 33626.4 hPa ESE 2.6 km/h 9 km/h 93% 20.32 mm WeatherDisplay:10.37 W/m2 -RA
04:41 -17.1 °C -17.6 °C 33626.4 hPa Calm     93% 20.32 mm WeatherDisplay:10.37 W/m2 -RA
04:46 -17.1 °C -17.6 °C 33626.4 hPa Calm     93% 12.7 mm WeatherDisplay:10.37 W/m2 -RA
04:52 -17.1 °C -17.6 °C 33626.4 hPa ESE 1 km/h 6 km/h 93% 12.7 mm WeatherDisplay:10.37 W/m2 -RA
04:57 -17.1 °C -17.6 °C 33626.4 hPa ESE 2.3 km/h 9 km/h 93% 20.32 mm WeatherDisplay:10.37 W/m2 -RA
05:02 -17.1 °C -17.6 °C 33626.4 hPa Calm     93% 12.7 mm WeatherDisplay:10.37 W/m2 -RA
05:07 -17.1 °C -17.6 °C 33626.4 hPa ESE 1.8 km/h 10.3 km/h 93% 12.7 mm WeatherDisplay:10.37 W/m2 -RA
05:12 -17.1 °C -17.6 °C 33626.4 hPa Calm   6 km/h 93% 12.7 mm WeatherDisplay:10.37 W/m2 -RA
05:17 -17.1 °C -17.6 °C 33626.4 hPa ESE 0.5 km/h 6 km/h 93% 12.7 mm WeatherDisplay:10.37 W/m2 -RA
05:22 -17.1 °C -17.6 °C 33616.2 hPa Calm     93% 12.7 mm WeatherDisplay:10.37 W/m2 -RA
05:27 -17.1 °C -17.6 °C 33616.2 hPa Calm     93% 12.7 mm WeatherDisplay:10.37 W/m2 -RA
05:32 -17.1 °C -17.6 °C 33616.2 hPa Calm   3.1 km/h 93% 12.7 mm WeatherDisplay:10.37 W/m2 -RA
05:37 -17.1 °C -17.6 °C 33616.2 hPa ESE 0.5 km/h 9 km/h 93% 12.7 mm WeatherDisplay:10.37 W/m2 -RA
05:42 -17.1 °C -17.6 °C 33616.2 hPa Calm   3.1 km/h 93% 20.32 mm WeatherDisplay:10.37 W/m2 -RA
05:47 -17.1 °C -17.6 °C 33616.2 hPa ESE 0.3 km/h 2.6 km/h 93% 20.32 mm WeatherDisplay:10.37 W/m2 -RA
05:52 -17.1 °C -17.6 °C 33616.2 hPa Calm   6 km/h 93% 20.32 mm WeatherDisplay:10.37 W/m2 -RA
05:57 -17.1 °C -17.6 °C 33602.7 hPa Calm     93% 20.32 mm WeatherDisplay:10.37 W/m2 -RA
06:03 -17.1 °C -17.6 °C 33602.7 hPa ESE 0.3 km/h 5.1 km/h 93% 20.32 mm WeatherDisplay:10.37 W/m2 -RA
06:08 -17.1 °C -17.6 °C 33602.7 hPa ESE 6.3 km/h 10.3 km/h 93% 25.4 mm WeatherDisplay:10.37 W/m2 -RA
06:13 -17.1 °C -17.6 °C 33602.7 hPa ESE 4.7 km/h 9 km/h 93% 25.4 mm WeatherDisplay:10.37 W/m2 -RA
06:18 -17.1 °C -17.6 °C 33602.7 hPa Calm     93% 20.32 mm WeatherDisplay:10.37 W/m2 -RA
06:23 -17.1 °C -17.6 °C 33602.7 hPa Calm     93% 25.4 mm WeatherDisplay:10.37 W/m2 -RA
06:28 -17.1 °C -17.6 °C 33602.7 hPa Calm     93% 25.4 mm WeatherDisplay:10.37 W/m2 -RA
06:33 -17.1 °C -17.6 °C 33602.7 hPa Calm     93% 20.32 mm WeatherDisplay:10.37 W/m2 -RA
06:38 -17.1 °C -17.6 °C 33602.7 hPa ESE 0.3 km/h 9 km/h 93% 25.4 mm WeatherDisplay:10.37 W/m2 -RA
06:43 -17.1 °C -17.6 °C 33602.7 hPa Calm   5.1 km/h 93% 20.32 mm WeatherDisplay:10.37 W/m2 -RA
06:48 -17.1 °C -17.6 °C 33602.7 hPa ESE 0.5 km/h 10.3 km/h 93% 20.32 mm WeatherDisplay:10.37 W/m2 -RA
06:53 -17.1 °C -17.6 °C 33592.5 hPa Calm   3.1 km/h 93% 20.32 mm WeatherDisplay:10.37 W/m2 -RA
06:58 -17.1 °C -17.6 °C 33592.5 hPa Calm     94% 12.7 mm WeatherDisplay:10.37 W/m2 -RA
07:03 -17.1 °C -17.5 °C 33592.5 hPa Calm     94% 12.7 mm WeatherDisplay:10.37 W/m2 -RA
07:09 -17.1 °C -17.5 °C 33592.5 hPa Calm     94% 12.7 mm WeatherDisplay:10.37 W/m2 -RA
07:14 -17.1 °C -17.6 °C 33592.5 hPa Calm     94% 12.7 mm WeatherDisplay:10.37 W/m2 -RA
07:19 -17.1 °C -17.6 °C 33592.5 hPa Calm     94% 7.62 mm WeatherDisplay:10.37 W/m2 -RA
07:24 -17.1 °C -17.5 °C 33592.5 hPa Calm     94% 7.62 mm WeatherDisplay:10.37 W/m2 -RA
07:29 -17.1 °C -17.5 °C 33592.5 hPa Calm     94% 7.62 mm WeatherDisplay:10.37 W/m2 -RA
07:34 -17.1 °C -17.5 °C 33592.5 hPa Calm     94% 7.62 mm WeatherDisplay:10.37 W/m2 -RA
07:39 -17.1 °C -17.5 °C 33592.5 hPa Calm     94% 0 mm WeatherDisplay:10.37 W/m2 -RA
07:44 -17.1 °C -17.5 °C 33592.5 hPa ESE 1.8 km/h 6 km/h 94% 0 mm WeatherDisplay:10.37 W/m2 -RA
07:49 -17 °C -17.6 °C 33592.5 hPa Calm     93% 0 mm WeatherDisplay:10.37 W/m2 -RA
07:55 -17 °C -17.6 °C 33592.5 hPa Calm     93% 0 mm WeatherDisplay:10.37 W/m2 -RA
08:00 -17 °C -17.6 °C 33592.5 hPa ESE 0.8 km/h 6 km/h 93% 0 mm WeatherDisplay:10.37 W/m2 -RA
08:05 -17 °C -17.6 °C 33592.5 hPa Calm     93% 0 mm WeatherDisplay:10.37 W/m2 -RA
08:10 -17 °C -17.6 °C 33592.5 hPa Calm     93% 0 mm WeatherDisplay:10.37 W/m2 -RA
08:15 -17 °C -17.6 °C 33592.5 hPa Calm     93% 0 mm WeatherDisplay:10.37 W/m2 -RA
08:20 -17 °C -17.6 °C 33592.5 hPa Calm     93% 0 mm WeatherDisplay:10.37 W/m2 -RA
08:25 -17 °C -17.6 °C 33592.5 hPa Calm     93% 0 mm WeatherDisplay:10.37 W/m2 -RA
08:30 -17 °C -17.6 °C 33592.5 hPa Calm     93% 0 mm WeatherDisplay:10.37 W/m2 -RA
08:35 -16.9 °C -17.5 °C 33592.5 hPa Calm     93% 7.62 mm WeatherDisplay:10.37 W/m2 -RA
08:40 -16.9 °C -17.5 °C 33592.5 hPa Calm     93% 7.62 mm WeatherDisplay:10.37 W/m2 -RA
08:45 -16.9 °C -17.5 °C 33592.5 hPa Calm     93% 7.62 mm WeatherDisplay:10.37 W/m2 -RA
08:50 -16.9 °C -17.4 °C 33592.5 hPa ESE 1.8 km/h 6 km/h 94% 12.7 mm WeatherDisplay:10.37 W/m2 -RA
08:55 -16.9 °C -17.4 °C 33592.5 hPa Calm     94% 12.7 mm WeatherDisplay:10.37 W/m2 -RA
09:01 -16.9 °C -17.4 °C 33592.5 hPa ESE 2.9 km/h 7.7 km/h 94% 12.7 mm WeatherDisplay:10.37 W/m2 -RA
09:06 -16.9 °C -17.4 °C 33592.5 hPa Calm     94% 12.7 mm WeatherDisplay:10.37 W/m2 -RA
09:11 -16.8 °C -17.3 °C 33592.5 hPa Calm     94% 12.7 mm WeatherDisplay:10.37 W/m2 -RA
09:16 -16.8 °C -17.3 °C 33592.5 hPa Calm     94% 12.7 mm WeatherDisplay:10.37 W/m2 -RA
09:21 -16.8 °C -17.3 °C 33592.5 hPa Calm     94% 12.7 mm WeatherDisplay:10.37 W/m2 -RA
09:26 -16.8 °C -17.3 °C 33592.5 hPa ESE 0.5 km/h 3.1 km/h 94% 12.7 mm WeatherDisplay:10.37 W/m2 -RA
09:31 -16.8 °C -17.3 °C 33592.5 hPa Calm     94% 12.7 mm WeatherDisplay:10.37 W/m2 -RA
09:36 -16.8 °C -17.3 °C 33592.5 hPa ESE 2.6 km/h 7.7 km/h 94% 12.7 mm WeatherDisplay:10.37 W/m2 -RA
09:41 -16.8 °C -17.3 °C 33592.5 hPa Calm     94% 12.7 mm WeatherDisplay:10.37 W/m2 -RA
09:46 -16.8 °C -17.3 °C 33592.5 hPa ESE 1 km/h 5.1 km/h 94% 12.7 mm WeatherDisplay:10.37 W/m2 -RA
09:51 -16.8 °C -17.3 °C 33592.5 hPa ESE 1.6 km/h 9 km/h 94% 7.62 mm WeatherDisplay:10.37 W/m2 -RA
09:56 -16.8 °C -17.3 °C 33592.5 hPa Calm     94% 7.62 mm WeatherDisplay:10.37 W/m2 -RA
10:02 -16.8 °C -17.3 °C 33592.5 hPa Calm   6 km/h 94% 7.62 mm WeatherDisplay:10.37 W/m2 -RA
10:07 -16.8 °C -17.3 °C 33592.5 hPa Calm     94% 7.62 mm WeatherDisplay:10.37 W/m2 -RA
10:12 -16.8 °C -17.3 °C 33592.5 hPa Calm     94% 7.62 mm WeatherDisplay:10.37 W/m2 -RA
10:17 -16.8 °C -17.3 °C 33582.3 hPa ESE 0.8 km/h 9 km/h 94% 7.62 mm WeatherDisplay:10.37 W/m2 -RA
10:22 -16.8 °C -17.3 °C 33582.3 hPa Calm     94% 7.62 mm WeatherDisplay:10.37 W/m2 -RA
10:27 -16.8 °C -17.3 °C 33582.3 hPa Calm     94% 12.7 mm WeatherDisplay:10.37 W/m2 -RA
10:32 -16.7 °C -17.2 °C 33592.5 hPa ESE 1.6 km/h 6 km/h 94% 12.7 mm WeatherDisplay:10.37 W/m2 -DZ
10:37 -16.7 °C -17.2 °C 33582.3 hPa Calm     94% 7.62 mm WeatherDisplay:10.37 W/m2 -DZ
10:42 -16.7 °C -17.2 °C 33592.5 hPa Calm     94% 7.62 mm WeatherDisplay:10.37 W/m2 -DZ
10:47 -16.7 °C -17.2 °C 33592.5 hPa ESE 2.1 km/h 9 km/h 94% 12.7 mm WeatherDisplay:10.37 W/m2 -DZ
10:52 -16.8 °C -17.3 °C 33592.5 hPa Calm     94% 12.7 mm WeatherDisplay:10.37 W/m2 -DZ
10:57 -16.8 °C -17.3 °C 33582.3 hPa ESE 4.2 km/h 9 km/h 94% 12.7 mm WeatherDisplay:10.37 W/m2 -DZ
11:02 -16.8 °C -17.3 °C 33582.3 hPa Calm     94% 12.7 mm WeatherDisplay:10.37 W/m2 -RA
11:08 -16.8 °C -17.3 °C 33582.3 hPa Calm     94% 12.7 mm WeatherDisplay:10.37 W/m2 -RA
11:13 -16.7 °C -17.2 °C 33582.3 hPa Calm     94% 12.7 mm WeatherDisplay:10.37 W/m2 -RA
11:18 -16.7 °C -17.2 °C 33582.3 hPa Calm     94% 12.7 mm WeatherDisplay:10.37 W/m2 -RA
11:23 -16.7 °C -17.2 °C 33582.3 hPa Calm     94% 12.7 mm WeatherDisplay:10.37 W/m2 -RA
11:28 -16.7 °C -17.2 °C 33582.3 hPa Calm     94% 7.62 mm WeatherDisplay:10.37 W/m2 -RA
11:33 -16.6 °C -17.1 °C 33568.8 hPa Calm     94% 7.62 mm WeatherDisplay:10.37 W/m2 -RA
11:38 -16.6 °C -17.1 °C 33568.8 hPa Calm     94% 7.62 mm WeatherDisplay:10.37 W/m2 -RA
11:43 -16.6 °C -17.1 °C 33582.3 hPa ESE 3.4 km/h 9 km/h 94% 7.62 mm WeatherDisplay:10.37 W/m2 -RA
11:48 -16.6 °C -17.1 °C 33582.3 hPa ESE 1.6 km/h 10.3 km/h 94% 0 mm WeatherDisplay:10.37 W/m2 -RA
11:53 -16.6 °C -17.1 °C 33582.3 hPa Calm     94% 0 mm WeatherDisplay:10.37 W/m2 -RA
11:58 -16.6 °C -17.1 °C 33582.3 hPa ESE 5 km/h 15 km/h 94% 0 mm WeatherDisplay:10.37 W/m2 -RA
12:03 -16.6 °C -17.1 °C 33582.3 hPa Calm   9 km/h 94% 0 mm WeatherDisplay:10.37 W/m2 -RA
12:09 -16.6 °C -17.1 °C 33582.3 hPa ESE 6.9 km/h 17.9 km/h 94% 0 mm WeatherDisplay:10.37 W/m2 -RA
12:14 -16.6 °C -17.1 °C 33582.3 hPa ESE 1.8 km/h 6 km/h 94% 0 mm WeatherDisplay:10.37 W/m2 -RA
12:19 -16.6 °C -17.1 °C 33582.3 hPa ESE 5.5 km/h 9 km/h 94% 0 mm WeatherDisplay:10.37 W/m2 -RA
12:24 -16.6 °C -17.1 °C 33582.3 hPa ESE 1.8 km/h 10.3 km/h 94% 0 mm WeatherDisplay:10.37 W/m2 -RA
12:29 -16.7 °C -17.2 °C 33582.3 hPa ESE 4.3 km/h 7.7 km/h 94% 0 mm WeatherDisplay:10.37 W/m2 -RA
12:34 -16.7 °C -17.2 °C 33582.3 hPa ESE 0.8 km/h 6 km/h 94% 0 mm WeatherDisplay:10.37 W/m2 -RA
12:36 -16.7 °C -17.2 °C 33582.3 hPa Calm     94% 0 mm WeatherDisplay:10.37 W/m2 -RA
12:41 -16.7 °C -17.2 °C 33568.8 hPa ESE 1.6 km/h 6 km/h 94% 0 mm WeatherDisplay:10.37 W/m2 -RA
12:46 -16.6 °C -17.1 °C 33568.8 hPa Calm     94% 0 mm WeatherDisplay:10.37 W/m2 -RA
12:51 -16.6 °C -17.1 °C 33568.8 hPa Calm     94% 0 mm WeatherDisplay:10.37 W/m2 -RA
12:56 -16.6 °C -17.1 °C 33568.8 hPa Calm     94% 0 mm WeatherDisplay:10.37 W/m2 -RA
13:01 -16.6 °C -17.1 °C 33568.8 hPa Calm     94% 0 mm WeatherDisplay:10.37 W/m2 -DZ
13:06 -16.6 °C -17.1 °C 33568.8 hPa ESE 2.1 km/h 9 km/h 94% 0 mm WeatherDisplay:10.37 W/m2 -DZ
13:11 -16.6 °C -17.1 °C 33568.8 hPa Calm     94% 0 mm WeatherDisplay:10.37 W/m2 -DZ
13:17 -16.6 °C -17.1 °C 33568.8 hPa ESE 1.8 km/h 9 km/h 94% 0 mm WeatherDisplay:10.37 W/m2 -DZ
13:22 -16.6 °C -17.1 °C 33568.8 hPa Calm   6 km/h 94% 0 mm WeatherDisplay:10.37 W/m2 -DZ
13:27 -16.5 °C -17 °C 33568.8 hPa Calm     94% 0 mm WeatherDisplay:10.37 W/m2 -DZ
13:32 -16.5 °C -17 °C 33568.8 hPa Calm     94% 0 mm WeatherDisplay:10.37 W/m2 -DZ
13:37 -16.5 °C -17 °C 33568.8 hPa Calm   9 km/h 94% 0 mm WeatherDisplay:10.37 W/m2 -DZ
13:42 -16.5 °C -17 °C 33568.8 hPa Calm     94% 0 mm WeatherDisplay:10.37 W/m2 -DZ
13:47 -16.5 °C -17 °C 33558.6 hPa Calm     94% 0 mm WeatherDisplay:10.37 W/m2 -DZ
13:52 -16.5 °C -17 °C 33558.6 hPa ESE 3.9 km/h 15 km/h 94% 0 mm WeatherDisplay:10.37 W/m2 -DZ
13:57 -16.4 °C -16.9 °C 33568.8 hPa Calm   3.1 km/h 94% 0 mm WeatherDisplay:10.37 W/m2 -DZ
14:02 -16.5 °C -17 °C 33558.6 hPa Calm     94% 0 mm WeatherDisplay:10.37 W/m2 -DZ
14:07 -16.4 °C -16.9 °C 33568.8 hPa Calm     94% 0 mm WeatherDisplay:10.37 W/m2 -DZ
14:12 -16.4 °C -16.9 °C 33558.6 hPa ESE 1.3 km/h 10.3 km/h 94% 0 mm WeatherDisplay:10.37 W/m2 -DZ
14:18 -16.4 °C -16.9 °C 33558.6 hPa ESE 5.6 km/h 18.2 km/h 94% 0 mm WeatherDisplay:10.37 W/m2 -DZ
14:23 -16.4 °C -16.9 °C 33558.6 hPa Calm     94% 0 mm WeatherDisplay:10.37 W/m2 -DZ
14:28 -16.4 °C -16.9 °C 33558.6 hPa Calm     94% 0 mm WeatherDisplay:10.37 W/m2 -DZ
14:33 -16.4 °C -16.9 °C 33558.6 hPa Calm     94% 0 mm WeatherDisplay:10.37 W/m2 -DZ
14:38 -16.4 °C -16.9 °C 33558.6 hPa Calm     94% 0 mm WeatherDisplay:10.37 W/m2 -DZ
14:43 -16.4 °C -16.9 °C 33558.6 hPa Calm     94% 0 mm WeatherDisplay:10.37 W/m2 -DZ
14:48 -16.4 °C -16.9 °C 33558.6 hPa Calm     94% 0 mm WeatherDisplay:10.37 W/m2 -DZ
14:53 -16.4 °C -16.9 °C 33558.6 hPa Calm     94% 0 mm WeatherDisplay:10.37 W/m2 -DZ
14:58 -16.4 °C -16.9 °C 33558.6 hPa Calm   6 km/h 94% 0 mm WeatherDisplay:10.37 W/m2 -DZ
15:03 -16.4 °C -16.9 °C 33558.6 hPa Calm     94% 0 mm WeatherDisplay:10.37 W/m2 -DZ
15:08 -16.4 °C -16.9 °C 33558.6 hPa Calm     94% 0 mm WeatherDisplay:10.37 W/m2 -DZ
15:13 -16.4 °C -16.9 °C 33558.6 hPa ESE 1.3 km/h 9 km/h 94% 0 mm WeatherDisplay:10.37 W/m2 -DZ
15:18 -16.4 °C -16.9 °C 33558.6 hPa ESE 1 km/h 9 km/h 94% 7.62 mm WeatherDisplay:10.37 W/m2 -DZ
15:23 -16.4 °C -16.9 °C 33558.6 hPa ESE 0.8 km/h 9 km/h 94% 7.62 mm WeatherDisplay:10.37 W/m2 -DZ
15:29 -16.4 °C -16.9 °C 33545.1 hPa ESE 0.3 km/h 3.1 km/h 94% 7.62 mm WeatherDisplay:10.37 W/m2 -DZ
15:34 -16.4 °C -16.9 °C 33545.1 hPa Calm     94% 7.62 mm WeatherDisplay:10.37 W/m2 -DZ
15:39 -16.4 °C -16.9 °C 33545.1 hPa Calm     94% 7.62 mm WeatherDisplay:10.37 W/m2 -DZ
15:44 -16.4 °C -16.9 °C 33545.1 hPa ESE 1.6 km/h 6 km/h 94% 7.62 mm WeatherDisplay:10.37 W/m2 -DZ
15:49 -16.3 °C -16.8 °C 33545.1 hPa Calm     94% 7.62 mm WeatherDisplay:10.37 W/m2 -DZ
15:54 -16.3 °C -16.8 °C 33545.1 hPa ESE 4.2 km/h 9 km/h 94% 7.62 mm WeatherDisplay:10.37 W/m2 -DZ
15:59 -16.3 °C -16.8 °C 33545.1 hPa Calm   3.1 km/h 94% 7.62 mm WeatherDisplay:10.37 W/m2 -DZ
16:04 -16.3 °C -16.8 °C 33545.1 hPa Calm     94% 7.62 mm WeatherDisplay:10.37 W/m2 -DZ
16:09 -16.3 °C -16.8 °C 33545.1 hPa Calm     94% 7.62 mm WeatherDisplay:10.37 W/m2 -DZ
16:14 -16.3 °C -16.8 °C 33545.1 hPa Calm     94% 7.62 mm WeatherDisplay:10.37 W/m2 -DZ
16:19 -16.3 °C -16.8 °C 33545.1 hPa Calm   3.1 km/h 94% 0 mm WeatherDisplay:10.37 W/m2 -DZ
16:24 -16.3 °C -16.4 °C 33545.1 hPa ESE 3.1 km/h 6 km/h 99% 0 mm WeatherDisplay:10.37 W/m2 -DZ
16:30 -16.3 °C -16.8 °C 33545.1 hPa ESE 1 km/h 6 km/h 94% 0 mm WeatherDisplay:10.37 W/m2 -DZ
16:35 -16.3 °C -16.4 °C 33545.1 hPa Calm     99% 0 mm WeatherDisplay:10.37 W/m2 -DZ
16:40 -16.3 °C -16.8 °C 33545.1 hPa Calm     94% 7.62 mm WeatherDisplay:10.37 W/m2 -DZ
16:45 -16.3 °C -16.8 °C 33545.1 hPa ESE 1.8 km/h 9 km/h 94% 7.62 mm WeatherDisplay:10.37 W/m2 -DZ
16:50 -16.3 °C -16.8 °C 33545.1 hPa ESE 1 km/h 6 km/h 94% 7.62 mm WeatherDisplay:10.37 W/m2 -DZ
16:55 -16.3 °C -16.8 °C 33545.1 hPa ESE 1.3 km/h 5.1 km/h 94% 7.62 mm WeatherDisplay:10.37 W/m2 -DZ
17:00 -16.3 °C -16.4 °C 33545.1 hPa Calm     99% 7.62 mm WeatherDisplay:10.37 W/m2 -DZ
17:05 -16.3 °C -16.8 °C 33545.1 hPa Calm     94% 7.62 mm WeatherDisplay:10.37 W/m2 -DZ
17:10 -16.4 °C -16.9 °C 33545.1 hPa Calm     94% 7.62 mm WeatherDisplay:10.37 W/m2 -DZ
17:15 -16.4 °C -16.9 °C 33545.1 hPa Calm     94% 7.62 mm WeatherDisplay:10.37 W/m2 -DZ
17:20 -16.4 °C -16.9 °C 33545.1 hPa Calm     94% 7.62 mm WeatherDisplay:10.37 W/m2 -DZ
17:25 -16.4 °C -16.9 °C 33545.1 hPa Calm     94% 7.62 mm WeatherDisplay:10.37 W/m2 -DZ
17:31 -16.4 °C -16.9 °C 33545.1 hPa Calm     94% 7.62 mm WeatherDisplay:10.37 W/m2 -DZ
17:36 -16.4 °C -16.9 °C 33545.1 hPa Calm     94% 7.62 mm WeatherDisplay:10.37 W/m2 -DZ
17:41 -16.4 °C -16.9 °C 33545.1 hPa ESE 1.6 km/h 3.1 km/h 94% 0 mm WeatherDisplay:10.37 W/m2 -DZ
17:46 -16.4 °C -16.9 °C 33545.1 hPa Calm     94% 7.62 mm WeatherDisplay:10.37 W/m2 -DZ
17:51 -16.4 °C -16.9 °C 33534.9 hPa Calm     94% 7.62 mm WeatherDisplay:10.37 W/m2 -DZ
17:56 -16.4 °C -16.9 °C 33545.1 hPa Calm     94% 7.62 mm WeatherDisplay:10.37 W/m2 -DZ
18:01 -16.5 °C -17 °C 33545.1 hPa Calm     94% 7.62 mm WeatherDisplay:10.37 W/m2 -DZ
18:06 -16.5 °C -17 °C 33545.1 hPa Calm     94% 7.62 mm WeatherDisplay:10.37 W/m2 -RA
18:11 -16.5 °C -17 °C 33545.1 hPa ESE 0.3 km/h 5.1 km/h 94% 7.62 mm WeatherDisplay:10.37 W/m2 -RA
18:16 -16.6 °C -17.1 °C 33545.1 hPa Calm     94% 7.62 mm WeatherDisplay:10.37 W/m2 -RA
18:21 -16.6 °C -17.1 °C 33545.1 hPa Calm     94% 12.7 mm WeatherDisplay:10.37 W/m2 -RA
18:26 -16.6 °C -17.1 °C 33545.1 hPa Calm     94% 12.7 mm WeatherDisplay:10.37 W/m2 -RA
18:31 -16.6 °C -17.1 °C 33545.1 hPa Calm     94% 12.7 mm WeatherDisplay:10.37 W/m2 -RA
18:37 -16.6 °C -17.1 °C 33534.9 hPa ESE 0.3 km/h 2.6 km/h 94% 12.7 mm WeatherDisplay:10.37 W/m2 -RA
18:42 -16.6 °C -17.1 °C 33545.1 hPa ESE 0.8 km/h 6 km/h 94% 7.62 mm WeatherDisplay:10.37 W/m2 -RA
18:47 -16.6 °C -17.1 °C 33534.9 hPa Calm     94% 7.62 mm WeatherDisplay:10.37 W/m2 -RA
18:52 -16.6 °C -17.1 °C 33534.9 hPa Calm     94% 7.62 mm WeatherDisplay:10.37 W/m2 -RA
18:57 -16.6 °C -17.1 °C 33534.9 hPa Calm     94% 12.7 mm WeatherDisplay:10.37 W/m2 -RA
19:02 -16.6 °C -17.1 °C 33534.9 hPa Calm     94% 12.7 mm WeatherDisplay:10.37 W/m2 -RA
19:07 -16.6 °C -17.1 °C 33534.9 hPa Calm     94% 12.7 mm WeatherDisplay:10.37 W/m2 -RA
19:12 -16.6 °C -17.1 °C 33534.9 hPa Calm     94% 12.7 mm WeatherDisplay:10.37 W/m2 -RA
19:17 -16.6 °C -17.1 °C 33534.9 hPa Calm     94% 12.7 mm WeatherDisplay:10.37 W/m2 -RA
19:22 -16.6 °C -17.1 °C 33534.9 hPa Calm     94% 7.62 mm WeatherDisplay:10.37 W/m2 -RA
19:27 -16.6 °C -17.1 °C 33545.1 hPa Calm     94% 7.62 mm WeatherDisplay:10.37 W/m2 -RA
19:32 -16.6 °C -17.1 °C 33545.1 hPa Calm     94% 7.62 mm WeatherDisplay:10.37 W/m2 -RA
19:37 -16.6 °C -17.1 °C 33545.1 hPa Calm     94% 7.62 mm WeatherDisplay:10.37 W/m2 -RA
19:43 -16.6 °C -17.1 °C 33534.9 hPa Calm     94% 7.62 mm WeatherDisplay:10.37 W/m2 -RA
19:48 -16.7 °C -17.2 °C 33534.9 hPa Calm     94% 12.7 mm WeatherDisplay:10.37 W/m2 -RA
19:53 -16.7 °C -17.2 °C 33534.9 hPa Calm     94% 12.7 mm WeatherDisplay:10.37 W/m2 -RA
19:58 -16.7 °C -17.2 °C 33534.9 hPa Calm     94% 12.7 mm WeatherDisplay:10.37 W/m2 -RA
20:03 -16.7 °C -17.2 °C 33534.9 hPa Calm     94% 12.7 mm WeatherDisplay:10.37 W/m2 -RA
20:08 -16.7 °C -17.2 °C 33534.9 hPa Calm     94% 12.7 mm WeatherDisplay:10.37 W/m2 -RA
20:13 -16.7 °C -17.2 °C 33534.9 hPa Calm     94% 12.7 mm WeatherDisplay:10.37 W/m2 -RA
20:18 -16.7 °C -17.2 °C 33534.9 hPa Calm     94% 12.7 mm WeatherDisplay:10.37 W/m2 -RA
20:23 -16.7 °C -17.2 °C 33534.9 hPa Calm     94% 12.7 mm WeatherDisplay:10.37 W/m2 -RA
20:28 -16.7 °C -17.2 °C 33534.9 hPa Calm     94% 12.7 mm WeatherDisplay:10.37 W/m2 -RA
20:33 -16.7 °C -17.2 °C 33534.9 hPa Calm     94% 12.7 mm WeatherDisplay:10.37 W/m2 -RA
20:38 -16.7 °C -17.2 °C 33534.9 hPa Calm     94% 12.7 mm WeatherDisplay:10.37 W/m2 -RA
20:43 -16.7 °C -17.2 °C 33534.9 hPa Calm     94% 12.7 mm WeatherDisplay:10.37 W/m2 -RA
20:48 -16.7 °C -17.2 °C 33534.9 hPa Calm     94% 12.7 mm WeatherDisplay:10.37 W/m2 -RA
20:54 -16.7 °C -17.2 °C 33534.9 hPa Calm     94% 12.7 mm WeatherDisplay:10.37 W/m2 -RA
20:59 -16.7 °C -17.2 °C 33534.9 hPa Calm     94% 12.7 mm WeatherDisplay:10.37 W/m2 -RA
21:04 -16.7 °C -17.2 °C 33534.9 hPa Calm     94% 12.7 mm WeatherDisplay:10.37 W/m2 -RA
21:09 -16.7 °C -17.2 °C 33534.9 hPa Calm     94% 12.7 mm WeatherDisplay:10.37 W/m2 -RA
21:14 -16.7 °C -17.2 °C 33534.9 hPa Calm     94% 12.7 mm WeatherDisplay:10.37 W/m2 -RA
21:19 -16.8 °C -17.3 °C 33534.9 hPa Calm     94% 7.62 mm WeatherDisplay:10.37 W/m2 -RA
21:24 -16.8 °C -17.3 °C 33545.1 hPa Calm     94% 7.62 mm WeatherDisplay:10.37 W/m2 -RA
21:29 -16.8 °C -17.3 °C 33534.9 hPa Calm     94% 7.62 mm WeatherDisplay:10.37 W/m2 -RA
21:34 -16.8 °C -17.3 °C 33534.9 hPa Calm     94% 7.62 mm WeatherDisplay:10.37 W/m2 -RA
21:39 -16.8 °C -17.3 °C 33534.9 hPa Calm     94% 7.62 mm WeatherDisplay:10.37 W/m2 -RA
21:44 -16.8 °C -17.3 °C 33534.9 hPa Calm     94% 7.62 mm WeatherDisplay:10.37 W/m2 -RA
21:49 -16.8 °C -17.3 °C 33534.9 hPa Calm     94% 7.62 mm WeatherDisplay:10.37 W/m2 -RA
21:55 -16.8 °C -17.3 °C 33545.1 hPa Calm     94% 12.7 mm WeatherDisplay:10.37 W/m2 -RA
22:00 -16.8 °C -17.3 °C 33545.1 hPa Calm     94% 7.62 mm WeatherDisplay:10.37 W/m2 -RA
22:05 -16.9 °C -17.4 °C 33545.1 hPa Calm     94% 7.62 mm WeatherDisplay:10.37 W/m2 -DZ
22:10 -16.9 °C -17.4 °C 33534.9 hPa Calm     94% 7.62 mm WeatherDisplay:10.37 W/m2 -DZ
22:15 -16.9 °C -17.4 °C 33534.9 hPa Calm     94% 7.62 mm WeatherDisplay:10.37 W/m2 -DZ
22:20 -16.9 °C -17.4 °C 33534.9 hPa Calm     94% 7.62 mm WeatherDisplay:10.37 W/m2 -DZ
22:25 -16.9 °C -17.4 °C 33545.1 hPa Calm     94% 7.62 mm WeatherDisplay:10.37 W/m2 -DZ
22:30 -16.9 °C -17.4 °C 33545.1 hPa Calm     94% 7.62 mm WeatherDisplay:10.37 W/m2 -DZ
22:35 -16.9 °C -17.4 °C 33545.1 hPa Calm     94% 7.62 mm WeatherDisplay:10.37 W/m2 -DZ
22:40 -16.9 °C -17.4 °C 33545.1 hPa Calm     94% 7.62 mm WeatherDisplay:10.37 W/m2 -DZ
22:45 -16.9 °C -17.4 °C 33545.1 hPa Calm     94% 7.62 mm WeatherDisplay:10.37 W/m2 -DZ
22:50 -16.9 °C -17.4 °C 33545.1 hPa Calm   3.1 km/h 94% 0 mm WeatherDisplay:10.37 W/m2 -DZ
22:55 -16.8 °C -17.3 °C 33545.1 hPa Calm     94% 0 mm WeatherDisplay:10.37 W/m2 -DZ
23:01 -16.8 °C -17.3 °C 33545.1 hPa Calm     94% 0 mm WeatherDisplay:10.37 W/m2 -DZ
23:06 -16.8 °C -17.3 °C 33545.1 hPa Calm     94% 0 mm WeatherDisplay:10.37 W/m2 -DZ
23:11 -16.8 °C -17.3 °C 33545.1 hPa ESE 2.3 km/h 6 km/h 94% 0 mm WeatherDisplay:10.37 W/m2 -DZ
23:16 -16.7 °C -17.2 °C 33545.1 hPa ESE 6 km/h 9 km/h 94% 0 mm WeatherDisplay:10.37 W/m2 -DZ
23:21 -16.7 °C -17.2 °C 33545.1 hPa East 1 km/h 9 km/h 94% 0 mm WeatherDisplay:10.37 W/m2 -DZ
23:26 -16.7 °C -17.2 °C 33558.6 hPa Calm   9 km/h 94% 0 mm WeatherDisplay:10.37 W/m2 -DZ
23:31 -16.7 °C -17.2 °C 33558.6 hPa NNW 1 km/h 6 km/h 94% 0 mm WeatherDisplay:10.37 W/m2 -DZ
23:36 -16.7 °C -17.2 °C 33558.6 hPa Calm     94% 0 mm WeatherDisplay:10.37 W/m2 -DZ
23:41 -16.8 °C -17.3 °C 33558.6 hPa NNW 2.1 km/h 10.3 km/h 94% 0 mm WeatherDisplay:10.37 W/m2 -DZ
23:46 -16.8 °C -17.3 °C 33558.6 hPa NNW 8 km/h 15 km/h 94% 0 mm WeatherDisplay:10.37 W/m2 -DZ
23:51 -16.8 °C -17.3 °C 33558.6 hPa NNW 11.6 km/h 20.9 km/h 94% 0 mm WeatherDisplay:10.37 W/m2 -DZ
23:56 -16.8 °C -17.3 °C 33558.6 hPa NNW 6 km/h 12.9 km/h 94% 0 mm WeatherDisplay:10.37 W/m2 -DZ
Tuulensuunkaari, Veikkola, Suomi
Compliments of Weather Underground - 2.5 mb